createdAt,value
2019-05-13T00:00:23.586Z,103537.95
2019-05-13T00:03:00.378Z,103532.11
2019-05-13T00:05:30.992Z,103535.27
2019-05-13T00:08:07.506Z,103536.27
2019-05-13T00:10:38.138Z,103541.27
2019-05-13T00:13:08.735Z,103535.95
2019-05-13T00:15:39.301Z,103542.25
2019-05-13T00:18:09.949Z,103538.68
2019-05-13T00:20:40.594Z,103539.04
2019-05-13T00:23:11.181Z,103539.06
2019-05-13T00:25:44.206Z,103536.43
2019-05-13T00:28:19.493Z,103540.47
2019-05-13T00:30:50.966Z,103532.41
2019-05-13T00:33:27.446Z,103532.90
2019-05-13T00:35:58.165Z,103536.94
2019-05-13T00:38:28.764Z,103537.95
2019-05-13T00:41:00.348Z,103531.66
2019-05-13T00:43:33.587Z,103542.47
2019-05-13T00:46:03.879Z,103538.95
2019-05-13T00:48:35.753Z,103534.94
2019-05-13T00:51:06.438Z,103541.20
2019-05-13T00:53:37.016Z,103538.48
2019-05-13T00:56:07.596Z,103534.89
2019-05-13T00:58:40.246Z,103522.33
2019-05-13T01:01:10.896Z,103530.92
2019-05-13T01:03:44.024Z,103535.41
2019-05-13T01:06:13.791Z,103534.09
2019-05-13T01:08:44.392Z,103530.05
2019-05-13T01:11:15.053Z,103531.84
2019-05-13T01:13:45.767Z,103530.48
2019-05-13T01:16:16.622Z,103528.25
2019-05-13T01:18:47.209Z,103532.74
2019-05-13T01:21:17.772Z,103524.70
2019-05-13T01:23:48.385Z,103535.88
2019-05-13T01:26:18.969Z,103543.04
2019-05-13T01:28:53.677Z,103535.91
2019-05-13T01:31:24.397Z,103534.56
2019-05-13T01:33:55.128Z,103537.70
2019-05-13T01:36:25.840Z,103535.47
2019-05-13T01:38:56.426Z,103533.73
2019-05-13T01:41:30.244Z,103533.20
2019-05-13T01:44:04.053Z,103535.04
2019-05-13T01:46:37.457Z,103532.80
2019-05-13T01:49:09.085Z,103532.35
2019-05-13T01:51:40.742Z,103527.44
2019-05-13T01:54:14.304Z,103534.18
2019-05-13T01:56:45.094Z,103534.17
2019-05-13T01:59:15.599Z,103538.67
2019-05-13T02:01:49.522Z,103537.73
2019-05-13T02:04:20.120Z,103535.11
2019-05-13T02:06:50.883Z,103541.79
2019-05-13T02:09:29.051Z,103538.23
2019-05-13T02:12:01.361Z,103527.49
2019-05-13T02:14:39.055Z,103528.48
2019-05-13T02:17:14.600Z,103537.84
2019-05-13T02:19:49.090Z,103538.28
2019-05-13T02:22:25.380Z,103542.77
2019-05-13T02:24:59.768Z,103540.56
2019-05-13T02:27:32.031Z,103546.80
2019-05-13T02:30:10.554Z,103539.64
2019-05-13T02:32:43.101Z,103543.69
2019-05-13T02:35:15.498Z,103549.49
2019-05-13T02:37:47.805Z,103553.08
2019-05-13T02:40:22.634Z,103548.63
2019-05-13T02:42:53.803Z,103553.55
2019-05-13T02:45:25.553Z,103557.12
2019-05-13T02:48:03.884Z,103551.32
2019-05-13T02:50:36.182Z,103560.27
2019-05-13T02:53:08.515Z,103556.25
2019-05-13T02:55:43.723Z,103557.59
2019-05-13T02:58:16.182Z,103557.59
2019-05-13T03:00:48.530Z,103562.53
2019-05-13T03:03:23.177Z,103566.55
2019-05-13T03:05:54.546Z,103566.11
2019-05-13T03:08:39.845Z,103566.58
2019-05-13T03:10:58.122Z,103564.80
2019-05-13T03:13:32.285Z,103571.50
2019-05-13T03:16:13.402Z,103575.53
2019-05-13T03:18:52.458Z,103575.06
2019-05-13T03:21:24.030Z,103583.13
2019-05-13T03:23:55.399Z,103580.89
2019-05-13T03:26:33.808Z,103582.23
2019-05-13T03:29:05.225Z,103587.59
2019-05-13T03:31:36.505Z,103585.36
2019-05-13T03:34:08.023Z,103588.95
2019-05-13T03:36:45.121Z,103592.95
2019-05-13T03:39:16.322Z,103587.14
2019-05-13T03:41:46.223Z,103590.73
2019-05-13T03:44:18.852Z,103596.55
2019-05-13T03:46:53.135Z,103597.00
2019-05-13T03:49:25.923Z,103602.35
2019-05-13T03:51:57.822Z,103598.80
2019-05-13T03:54:34.517Z,103603.27
2019-05-13T03:57:05.599Z,103604.16
2019-05-13T03:59:36.431Z,103604.14
2019-05-13T04:02:07.377Z,103607.72
2019-05-13T04:04:42.254Z,103614.42
2019-05-13T04:07:12.939Z,103609.96
2019-05-13T04:09:44.982Z,103613.11
2019-05-13T04:12:15.824Z,103616.66
2019-05-13T04:14:46.717Z,103620.27
2019-05-13T04:17:17.367Z,103619.37
2019-05-13T04:19:48.357Z,103620.71
2019-05-13T04:22:23.072Z,103620.26
2019-05-13T04:24:53.148Z,103620.25
2019-05-13T04:27:23.925Z,103626.07
2019-05-13T04:29:54.670Z,103616.69
2019-05-13T04:32:28.683Z,103623.37
2019-05-13T04:34:58.018Z,103630.55
2019-05-13T04:37:28.684Z,103628.33
2019-05-13T04:39:59.453Z,103624.75
2019-05-13T04:42:33.131Z,103631.45
2019-05-13T04:45:03.268Z,103630.11
2019-05-13T04:47:34.453Z,103629.69
2019-05-13T04:50:08.601Z,103628.78
2019-05-13T04:52:45.104Z,103635.50
2019-05-13T04:55:22.800Z,103626.53
2019-05-13T04:57:53.938Z,103631.47
2019-05-13T05:01:07.400Z,103631.91
2019-05-13T05:03:45.717Z,103639.06
2019-05-13T05:06:26.515Z,103630.09
2019-05-13T05:10:13.242Z,103640.41
2019-05-13T05:13:12.809Z,103636.35
2019-05-13T05:16:13.922Z,103640.41
2019-05-13T05:19:24.481Z,103643.53
2019-05-13T05:22:13.469Z,103647.54
2019-05-13T05:25:03.727Z,103647.11
2019-05-13T05:28:11.314Z,103652.45
2019-05-13T05:31:14.686Z,103656.50
2019-05-13T05:34:21.970Z,103651.97
2019-05-13T05:37:22.434Z,103655.55
2019-05-13T05:39:55.404Z,103653.30
2019-05-13T05:42:28.146Z,103648.39
2019-05-13T05:45:02.757Z,103647.45
2019-05-13T05:47:35.918Z,103652.39
2019-05-13T05:50:06.680Z,103651.00
2019-05-13T05:52:38.147Z,103649.20
2019-05-13T05:55:11.247Z,103648.75
2019-05-13T05:57:42.583Z,103654.09
2019-05-13T06:00:13.577Z,103655.84
2019-05-13T06:02:46.668Z,103654.93
2019-05-13T06:05:21.342Z,103652.22
2019-05-13T06:07:52.451Z,103655.80
2019-05-13T06:10:27.365Z,103661.22
2019-05-13T06:12:58.240Z,103662.05
2019-05-13T06:15:31.455Z,103658.88
2019-05-13T06:18:11.770Z,103659.35
2019-05-13T06:20:48.176Z,103661.56
2019-05-13T06:23:18.778Z,103661.50
2019-05-13T06:25:49.493Z,103662.91
2019-05-13T06:28:26.308Z,103661.98
2019-05-13T06:30:57.078Z,103660.11
2019-05-13T06:33:27.767Z,103661.94
2019-05-13T06:36:04.189Z,103665.01
2019-05-13T06:38:34.871Z,103664.02
2019-05-13T06:41:11.429Z,103665.00
2019-05-13T06:43:41.826Z,103663.52
2019-05-13T06:46:17.679Z,103660.63
2019-05-13T06:48:48.377Z,103659.77
2019-05-13T06:51:18.972Z,103662.84
2019-05-13T06:53:54.682Z,103659.98
2019-05-13T06:56:25.335Z,103658.13
2019-05-13T06:59:04.911Z,103662.47
2019-05-13T07:01:35.558Z,103662.47
2019-05-13T07:04:06.299Z,103660.95
2019-05-13T07:06:37.459Z,103663.77
2019-05-13T07:09:08.379Z,103664.09
2019-05-13T07:11:45.838Z,103663.33
2019-05-13T07:14:16.725Z,103655.05
2019-05-13T07:16:47.487Z,103670.47
2019-05-13T07:19:18.284Z,103672.17
2019-05-13T07:21:49.008Z,103663.08
2019-05-13T07:24:26.624Z,103662.53
2019-05-13T07:27:04.413Z,103678.65
2019-05-13T07:29:42.380Z,103673.21
2019-05-13T07:32:13.963Z,103671.16
2019-05-13T07:34:45.815Z,103669.32
2019-05-13T07:37:16.599Z,103666.53
2019-05-13T07:39:47.515Z,103663.77
2019-05-13T07:42:18.369Z,103669.11
2019-05-13T07:44:49.200Z,103663.16
2019-05-13T07:47:22.017Z,103662.47
2019-05-13T07:49:52.385Z,103663.16
2019-05-13T07:52:24.299Z,103660.35
2019-05-13T07:54:54.968Z,103658.06
2019-05-13T07:57:26.852Z,103660.53
2019-05-13T08:00:05.377Z,103666.17
2019-05-13T08:02:36.184Z,103663.42
2019-05-13T08:05:14.013Z,103657.16
2019-05-13T08:07:44.929Z,103660.23
2019-05-13T08:10:25.986Z,103667.45
2019-05-13T08:12:56.864Z,103673.66
2019-05-13T08:15:27.723Z,103668.89
2019-05-13T08:18:01.985Z,103669.78
2019-05-13T08:20:32.750Z,103668.62
2019-05-13T08:23:03.696Z,103672.46
2019-05-13T08:25:34.589Z,103671.05
2019-05-13T08:28:06.481Z,103671.50
2019-05-13T08:30:38.314Z,103676.25
2019-05-13T08:33:12.593Z,103676.80
2019-05-13T08:35:46.953Z,103678.56
2019-05-13T08:38:24.159Z,103678.20
2019-05-13T08:40:56.935Z,103674.13
2019-05-13T08:43:31.667Z,103678.73
2019-05-13T08:46:03.429Z,103670.59
2019-05-13T08:48:35.104Z,103671.72
2019-05-13T08:51:05.930Z,103667.56
2019-05-13T08:53:36.855Z,103665.89
2019-05-13T08:56:13.388Z,103663.56
2019-05-13T08:58:44.142Z,103661.73
2019-05-13T09:01:15.834Z,103664.77
2019-05-13T09:03:53.685Z,103651.55
2019-05-13T09:06:24.427Z,103653.72
2019-05-13T09:08:56.539Z,103658.11
2019-05-13T09:11:27.297Z,103657.78
2019-05-13T09:13:58.074Z,103659.02
2019-05-13T09:16:31.969Z,103660.97
2019-05-13T09:19:03.754Z,103660.75
2019-05-13T09:21:34.939Z,103669.38
2019-05-13T09:24:20.821Z,103655.94
2019-05-13T09:26:38.299Z,103662.33
2019-05-13T09:29:11.883Z,103656.54
2019-05-13T09:31:42.556Z,103669.19
2019-05-13T09:34:14.394Z,103668.75
2019-05-13T09:36:45.076Z,103661.77
2019-05-13T09:39:15.831Z,103660.81
2019-05-13T09:41:46.574Z,103660.66
2019-05-13T09:44:17.427Z,103664.55
2019-05-13T09:46:51.564Z,103660.20
2019-05-13T09:49:23.679Z,103667.06
2019-05-13T09:51:54.111Z,103660.25
2019-05-13T09:54:24.766Z,103651.68
2019-05-13T09:56:55.619Z,103651.23
2019-05-13T09:59:26.300Z,103661.88
2019-05-13T10:01:57.093Z,103655.38
2019-05-13T10:04:27.930Z,103648.81
2019-05-13T10:07:01.545Z,103653.13
2019-05-13T10:09:32.605Z,103641.50
2019-05-13T10:12:04.399Z,103641.50
2019-05-13T10:14:35.093Z,103643.47
2019-05-13T10:17:13.184Z,103649.12
2019-05-13T10:19:47.128Z,103642.56
2019-05-13T10:22:18.362Z,103641.08
2019-05-13T10:24:53.256Z,103640.39
2019-05-13T10:27:27.406Z,103640.25
2019-05-13T10:29:59.399Z,103644.81
2019-05-13T10:32:32.434Z,103639.00
2019-05-13T10:35:03.617Z,103637.05
2019-05-13T10:37:36.463Z,103635.48
2019-05-13T10:40:07.378Z,103636.84
2019-05-13T10:42:38.343Z,103630.07
2019-05-13T10:45:09.174Z,103630.01
2019-05-13T10:47:43.700Z,103618.86
2019-05-13T10:50:16.576Z,103618.56
2019-05-13T10:52:48.431Z,103622.39
2019-05-13T10:55:27.351Z,103609.59
2019-05-13T10:58:03.904Z,103605.62
2019-05-13T11:00:43.779Z,103601.38
2019-05-13T11:03:25.699Z,103603.25
2019-05-13T11:05:56.487Z,103596.41
2019-05-13T11:08:28.281Z,103591.78
2019-05-13T11:11:02.259Z,103592.34
2019-05-13T11:13:50.603Z,103586.58
2019-05-13T11:16:06.675Z,103581.45
2019-05-13T11:18:41.594Z,103580.31
2019-05-13T11:21:16.080Z,103575.17
2019-05-13T11:23:55.924Z,103575.44
2019-05-13T11:26:28.680Z,103566.21
2019-05-13T11:29:02.811Z,103570.33
2019-05-13T11:31:33.772Z,103570.73
2019-05-13T11:34:04.659Z,103576.00
2019-05-13T11:36:37.180Z,103568.70
2019-05-13T11:39:08.956Z,103570.03
2019-05-13T11:41:43.804Z,103564.61
2019-05-13T11:44:16.908Z,103559.91
2019-05-13T11:46:47.132Z,103562.78
2019-05-13T11:49:17.860Z,103555.83
2019-05-13T11:51:48.708Z,103555.80
2019-05-13T11:54:26.430Z,103551.16
2019-05-13T11:57:07.231Z,103549.25
2019-05-13T11:59:37.934Z,103537.09
2019-05-13T12:02:14.641Z,103541.34
2019-05-13T12:04:45.350Z,103535.44
2019-05-13T12:07:16.122Z,103535.43
2019-05-13T12:09:47.965Z,103533.38
2019-05-13T12:12:18.801Z,103535.29
2019-05-13T12:15:20.493Z,103529.77
2019-05-13T12:17:22.670Z,103526.21
2019-05-13T12:19:55.572Z,103527.17
2019-05-13T12:22:30.011Z,103519.72
2019-05-13T12:25:02.053Z,103514.50
2019-05-13T12:27:33.108Z,103516.59
2019-05-13T12:30:13.335Z,103513.14
2019-05-13T12:32:44.042Z,103508.53
2019-05-13T12:35:14.828Z,103510.47
2019-05-13T12:37:48.999Z,103504.41
2019-05-13T12:40:22.774Z,103502.20
2019-05-13T12:42:58.223Z,103499.28
2019-05-13T12:45:29.140Z,103492.30
2019-05-13T12:48:14.009Z,103489.48
2019-05-13T12:50:43.669Z,103495.05
2019-05-13T12:53:15.475Z,103481.77
2019-05-13T12:55:53.788Z,103481.98
2019-05-13T12:58:25.784Z,103480.70
2019-05-13T13:00:56.615Z,103479.34
2019-05-13T13:03:28.410Z,103477.20
2019-05-13T13:08:47.409Z,103472.33
2019-05-13T13:11:11.992Z,103469.17
2019-05-13T13:16:16.319Z,103459.61
2019-05-13T13:18:47.035Z,103459.18
2019-05-13T13:21:17.830Z,103460.32
2019-05-13T13:23:50.738Z,103459.52
2019-05-13T13:26:25.451Z,103454.22
2019-05-13T13:28:57.259Z,103451.13
2019-05-13T13:31:28.107Z,103460.65
2019-05-13T13:34:10.951Z,103463.45
2019-05-13T13:36:33.639Z,103458.22
2019-05-13T13:39:08.346Z,103449.45
2019-05-13T13:41:39.225Z,103440.38
2019-05-13T13:44:14.392Z,103446.00
2019-05-13T13:46:49.310Z,103438.84
2019-05-13T13:49:23.567Z,103440.09
2019-05-13T13:51:54.438Z,103436.66
2019-05-13T13:54:33.551Z,103426.48
2019-05-13T13:57:03.139Z,103439.00
2019-05-13T14:00:13.742Z,103430.11
2019-05-13T14:02:13.470Z,103420.22
2019-05-13T14:04:43.365Z,103424.84
2019-05-13T14:06:50.057Z,103469.14
2019-05-13T14:07:26.540Z,103426.51
2019-05-13T14:09:48.084Z,103422.25
2019-05-13T14:12:37.420Z,103428.41
2019-05-13T14:15:10.043Z,103413.80
2019-05-13T14:17:41.560Z,103407.61
2019-05-13T14:20:16.817Z,103398.81
2019-05-13T14:22:47.723Z,103405.41
2019-05-13T14:25:18.528Z,103401.80
2019-05-13T14:27:52.594Z,103401.05
2019-05-13T14:30:26.266Z,103399.84
2019-05-13T14:32:58.044Z,103394.16
2019-05-13T14:35:28.797Z,103391.52
2019-05-13T14:38:21.888Z,103386.08
2019-05-13T14:40:54.678Z,103380.98
2019-05-13T14:43:26.401Z,103383.05
2019-05-13T14:45:57.194Z,103384.25
2019-05-13T14:48:32.542Z,103381.80
2019-05-13T14:51:07.677Z,103381.21
2019-05-13T14:53:41.762Z,103380.91
2019-05-13T14:56:23.912Z,103369.81
2019-05-13T14:58:44.827Z,103370.70
2019-05-13T15:01:22.287Z,103371.45
2019-05-13T15:03:48.207Z,103370.98
2019-05-13T15:06:21.562Z,103368.10
2019-05-13T15:09:01.757Z,103371.02
2019-05-13T15:11:33.560Z,103367.64
2019-05-13T15:14:11.848Z,103371.30
2019-05-13T15:16:42.725Z,103372.81
2019-05-13T15:19:13.514Z,103375.64
2019-05-13T15:21:47.728Z,103379.66
2019-05-13T15:24:21.317Z,103370.20
2019-05-13T15:26:59.871Z,103368.72
2019-05-13T15:29:31.358Z,103361.36
2019-05-13T15:32:02.351Z,103362.73
2019-05-13T15:34:38.458Z,103361.22
2019-05-13T15:37:11.250Z,103363.40
2019-05-13T15:39:43.037Z,103344.68
2019-05-13T15:42:31.900Z,103347.21
2019-05-13T15:45:02.973Z,103344.61
2019-05-13T15:47:51.593Z,103340.12
2019-05-13T15:50:23.274Z,103346.20
2019-05-13T15:52:53.935Z,103344.06
2019-05-13T15:55:28.010Z,103341.88
2019-05-13T15:57:58.800Z,103336.44
2019-05-13T16:00:29.608Z,103336.98
2019-05-13T16:03:02.283Z,103327.61
2019-05-13T16:05:33.002Z,103329.70
2019-05-13T16:08:04.226Z,103328.27
2019-05-13T16:10:34.979Z,103323.37
2019-05-13T16:13:05.571Z,103317.69
2019-05-13T16:15:36.329Z,103319.05
2019-05-13T16:18:07.997Z,103319.87
2019-05-13T16:20:42.598Z,103327.49
2019-05-13T16:23:13.332Z,103318.42
2019-05-13T16:25:44.293Z,103320.80
2019-05-13T16:28:14.943Z,103322.39
2019-05-13T16:30:51.544Z,103325.12
2019-05-13T16:33:21.909Z,103320.33
2019-05-13T16:35:52.672Z,103320.88
2019-05-13T16:38:23.473Z,103316.91
2019-05-13T16:40:54.340Z,103317.54
2019-05-13T16:43:25.997Z,103323.98
2019-05-13T16:45:57.016Z,103321.11
2019-05-13T16:48:28.028Z,103313.02
2019-05-13T16:51:00.690Z,103307.50
2019-05-13T16:53:31.746Z,103314.45
2019-05-13T16:56:06.239Z,103313.29
2019-05-13T16:58:38.885Z,103313.37
2019-05-13T17:01:11.811Z,103316.02
2019-05-13T17:03:44.086Z,103316.25
2019-05-13T17:06:14.782Z,103312.87
2019-05-13T17:08:45.708Z,103311.93
2019-05-13T17:11:16.408Z,103314.66
2019-05-13T17:13:53.953Z,103300.30
2019-05-13T17:16:34.388Z,103303.99
2019-05-13T17:19:05.182Z,103297.77
2019-05-13T17:21:36.217Z,103304.81
2019-05-13T17:24:12.399Z,103303.22
2019-05-13T17:26:42.478Z,103298.28
2019-05-13T17:29:14.078Z,103293.56
2019-05-13T17:31:44.810Z,103290.06
2019-05-13T17:34:21.531Z,103294.58
2019-05-13T17:36:52.207Z,103295.12
2019-05-13T17:39:28.999Z,103291.15
2019-05-13T17:42:01.438Z,103281.78
2019-05-13T17:44:33.025Z,103289.39
2019-05-13T17:47:04.837Z,103287.23
2019-05-13T17:49:41.747Z,103286.63
2019-05-13T17:52:11.975Z,103283.17
2019-05-13T17:54:42.927Z,103276.80
2019-05-13T17:57:14.761Z,103289.66
2019-05-13T17:59:45.380Z,103286.52
2019-05-13T18:02:21.138Z,103285.15
2019-05-13T18:05:02.038Z,103285.48
2019-05-13T18:07:32.957Z,103288.95
2019-05-13T18:10:03.630Z,103291.66
2019-05-13T18:12:41.789Z,103281.31
2019-05-13T18:15:13.694Z,103289.30
2019-05-13T18:17:44.390Z,103278.78
2019-05-13T18:20:15.065Z,103286.12
2019-05-13T18:22:48.066Z,103283.05
2019-05-13T18:25:18.795Z,103280.40
2019-05-13T18:27:52.157Z,103281.47
2019-05-13T18:30:23.140Z,103276.53
2019-05-13T18:32:57.517Z,103280.08
2019-05-13T18:35:31.754Z,103276.75
2019-05-13T18:38:04.537Z,103275.28
2019-05-13T18:40:35.345Z,103280.86
2019-05-13T18:43:06.976Z,103279.07
2019-05-13T18:45:37.587Z,103280.02
2019-05-13T18:48:12.374Z,103270.95
2019-05-13T18:50:43.157Z,103275.02
2019-05-13T18:53:14.005Z,103284.77
2019-05-13T18:55:44.632Z,103277.45
2019-05-13T18:58:23.110Z,103280.11
2019-05-13T19:01:08.124Z,103276.43
2019-05-13T19:03:41.502Z,103280.05
2019-05-13T19:06:12.240Z,103284.82
2019-05-13T19:08:47.416Z,103285.22
2019-05-13T19:11:18.340Z,103290.13
2019-05-13T19:13:49.056Z,103289.59
2019-05-13T19:16:21.418Z,103295.19
2019-05-13T19:18:54.365Z,103294.89
2019-05-13T19:21:25.058Z,103299.79
2019-05-13T19:23:55.887Z,103298.81
2019-05-13T19:26:28.552Z,103305.00
2019-05-13T19:28:59.158Z,103303.73
2019-05-13T19:31:29.843Z,103298.00
2019-05-13T19:34:01.462Z,103305.09
2019-05-13T19:36:33.226Z,103305.63
2019-05-13T19:39:06.335Z,103304.55
2019-05-13T19:41:37.048Z,103304.27
2019-05-13T19:44:08.834Z,103305.97
2019-05-13T19:46:42.134Z,103313.80
2019-05-13T19:49:27.373Z,103310.58
2019-05-13T19:51:44.984Z,103313.11
2019-05-13T19:54:15.710Z,103313.66
2019-05-13T19:56:53.129Z,103313.16
2019-05-13T19:59:27.095Z,103315.43
2019-05-13T20:02:09.187Z,103314.08
2019-05-13T20:04:41.389Z,103311.42
2019-05-13T20:07:12.723Z,103316.35
2019-05-13T20:09:51.829Z,103317.88
2019-05-13T20:12:23.162Z,103314.09
2019-05-13T20:15:01.235Z,103318.80
2019-05-13T20:17:33.111Z,103314.85
2019-05-13T20:20:07.789Z,103318.92
2019-05-13T20:22:42.242Z,103326.70
2019-05-13T20:25:13.335Z,103322.38
2019-05-13T20:27:45.455Z,103326.52
2019-05-13T20:30:18.013Z,103320.77
2019-05-13T20:32:48.774Z,103319.91
2019-05-13T20:35:23.503Z,103316.00
2019-05-13T20:37:55.229Z,103324.25
2019-05-13T20:40:26.992Z,103325.69
2019-05-13T20:43:01.805Z,103328.51
2019-05-13T20:45:32.548Z,103324.14
2019-05-13T20:48:04.019Z,103330.51
2019-05-13T20:50:34.727Z,103334.56
2019-05-13T20:53:05.652Z,103336.81
2019-05-13T20:55:36.825Z,103345.06
2019-05-13T20:58:07.743Z,103346.59
2019-05-13T21:00:38.717Z,103353.44
2019-05-13T21:03:11.555Z,103347.36
2019-05-13T21:05:41.932Z,103343.80
2019-05-13T21:08:12.761Z,103334.66
2019-05-13T21:10:43.448Z,103341.67
2019-05-13T21:13:14.216Z,103342.77
2019-05-13T21:15:45.712Z,103338.37
2019-05-13T21:18:32.206Z,103343.21
2019-05-13T21:21:02.927Z,103343.05
2019-05-13T21:23:33.605Z,103341.63
2019-05-13T21:26:04.691Z,103351.05
2019-05-13T21:28:35.269Z,103343.16
2019-05-13T21:31:06.107Z,103340.00
2019-05-13T21:33:36.799Z,103344.45
2019-05-13T21:36:07.733Z,103343.25
2019-05-13T21:38:38.704Z,103340.06
2019-05-13T21:41:11.657Z,103343.91
2019-05-13T21:43:43.900Z,103343.80
2019-05-13T21:46:15.321Z,103352.98
2019-05-13T21:48:47.024Z,103354.69
2019-05-13T21:51:31.485Z,103351.53
2019-05-13T21:54:02.406Z,103347.59
2019-05-13T21:56:32.997Z,103352.30
2019-05-13T21:59:04.434Z,103351.22
2019-05-13T22:01:35.904Z,103349.06
2019-05-13T22:04:06.857Z,103343.36
2019-05-13T22:06:43.994Z,103343.20
2019-05-13T22:09:14.815Z,103344.20
2019-05-13T22:11:52.683Z,103342.25
2019-05-13T22:14:23.450Z,103342.70
2019-05-13T22:16:56.493Z,103340.80
2019-05-13T22:19:26.524Z,103339.75
2019-05-13T22:21:57.177Z,103337.20
2019-05-13T22:24:27.739Z,103338.22
2019-05-13T22:27:03.900Z,103333.03
2019-05-13T22:29:42.837Z,103332.27
2019-05-13T22:32:13.553Z,103332.91
2019-05-13T22:34:44.149Z,103325.75
2019-05-13T22:37:14.970Z,103331.23
2019-05-13T22:40:06.385Z,103323.49
2019-05-13T22:42:37.229Z,103329.13
2019-05-13T22:45:07.993Z,103325.80
2019-05-13T22:47:38.683Z,103323.53
2019-05-13T22:50:11.489Z,103330.80
2019-05-13T22:52:42.830Z,103326.92
2019-05-13T22:55:18.714Z,103326.61
2019-05-13T22:57:51.460Z,103325.84
2019-05-13T23:00:22.487Z,103322.78
2019-05-13T23:02:53.148Z,103320.08
2019-05-13T23:05:23.832Z,103323.77
2019-05-13T23:08:02.043Z,103324.13
2019-05-13T23:10:32.252Z,103320.98
2019-05-13T23:13:03.611Z,103325.64
2019-05-13T23:15:34.468Z,103323.94
2019-05-13T23:18:05.190Z,103318.86
2019-05-13T23:20:41.734Z,103320.50
2019-05-13T23:23:12.484Z,103320.95
2019-05-13T23:25:47.459Z,103323.57
2019-05-13T23:28:18.582Z,103318.75
2019-05-13T23:30:51.223Z,103316.22
2019-05-13T23:33:31.370Z,103315.73
2019-05-13T23:36:02.370Z,103313.19
2019-05-13T23:38:33.315Z,103312.62
2019-05-13T23:41:04.940Z,103319.94
2019-05-13T23:43:35.775Z,103320.63
2019-05-13T23:46:06.363Z,103319.31
2019-05-13T23:48:37.380Z,103317.40
2019-05-13T23:51:14.072Z,103310.73
2019-05-13T23:53:46.301Z,103311.30
2019-05-13T23:56:17.171Z,103318.48
2019-05-13T23:58:47.892Z,103311.78
